Broadlands, Illinois
Current Conditions -  °F | °C
As of 4:53 PM on Thursday 18 Dec 2014 (Local Time) from KCMI Reporting Station
Overcast Overcast  
Wind Chill: -5°   Ceiling: 1500
Heat Index: -2°   Visibility: 10mi
Dew Point: -6°   Wind: 5mph
Humidity: 78%   Direction: 290°WNW
Pressure: 30.25"   Gusts: NA
Location:  39.91°N, 87.99°W
Report Text: KCMI 182253Z 29004KT 10SM OVC015 M02/M06 A3025 RMK AO2 SLP253 T10221056
Loading
Personal Weather Stations






























Interactive Weather Map New forecast layout! Learn more

10-Day Weather Forecast

Advertisements
Track Severe Weather on mobile